This is the latest recevied weather packets stored in our database for station/object W4SMH. If no packets are shown the sender has not sent any weather packets the latest 10 day(s).
| Time | Temp. | Humidity | Pressure | Rain* | Wind** | Luminosity | Snow |
|---|---|---|---|---|---|---|---|
| 1777297674 | 10.56° C | 88% | 1008.8 hPa | 0 mm | - | 72 W/m² | - |
| 1777297401 | 10.56° C | 88% | 1008.8 hPa | 0 mm | - | 90 W/m² | - |
| 1777297336 | 10.56° C | 89% | 1008.7 hPa | 0 mm | - | 93 W/m² | - |
| 1777296169 | 10° C | 89% | 1009.2 hPa | 0 mm | - | 69 W/m² | - |
| 1777296052 | 10° C | 89% | 1009.2 hPa | 0 mm | - | 74 W/m² | - |
| 1777296023 | 10° C | 89% | 1009.1 hPa | 0 mm | - | 77 W/m² | - |
| 1777295995 | 10° C | 89% | 1009.1 hPa | 0 mm | - | 88 W/m² | - |
| 1777294875 | 10° C | 90% | 1009.3 hPa | 0 mm | - | 109 W/m² | - |
| 1777293636 | 9.44° C | 89% | 1009.9 hPa | 0 mm | - | 58 W/m² | - |
| 1777293575 | 9.44° C | 89% | 1010 hPa | 0 mm | - | 63 W/m² | - |
| 1777292478 | 9.44° C | 89% | 1010.4 hPa | 0 mm | - | 46 W/m² | - |
| 1777292446 | 9.44° C | 89% | 1010.6 hPa | 0 mm | - | 47 W/m² | - |
| 1777292383 | 9.44° C | 90% | 1010.6 hPa | 0 mm | - | 53 W/m² | - |
| 1777291056 | 9.44° C | 90% | 1010.9 hPa | 0 mm | - | 51 W/m² | - |
| 1777291019 | 9.44° C | 89% | 1010.9 hPa | 0 mm | - | 51 W/m² | - |
| 1777290351 | 9.44° C | 89% | 1011 hPa | 0 mm | - | 26 W/m² | - |
| 1777290257 | 9.44° C | 89% | 1011 hPa | 0 mm | - | 26 W/m² | - |
| 1777290067 | 9.44° C | 89% | 1011.1 hPa | 0 mm | - | 23 W/m² | - |
| 1777290037 | 9.44° C | 89% | 1011.1 hPa | 0 mm | - | 23 W/m² | - |
| 1777290002 | 9.44° C | 89% | 1011 hPa | 0 mm | - | 23 W/m² | - |
| 1777289585 | 9.44° C | 89% | 1011 hPa | 0 mm | - | 16 W/m² | - |
| 1777289241 | 9.44° C | 89% | 1011 hPa | 0 mm | - | 12 W/m² | - |
| 1777288741 | 9.44° C | 89% | 1011.1 hPa | 0 mm | - | 9 W/m² | - |
| 1777288490 | 9.44° C | 89% | 1011.1 hPa | 0 mm | - | 7 W/m² | - |
| 1777288209 | 9.44° C | 89% | 1011.2 hPa | 0 mm | - | 5 W/m² | - |
* Rain latest hour (hover to see other rain measurements)
** Current wind speed in m/s (hover to see current wind gust speed)